sensor_id;sensor_type;location;lat;lon;timestamp;pressure;altitude;pressure_sealevel;temperature;humidity
6833;BME280;3454;42.654;23.378;2024-02-28T00:02:24;64101.25;;;10.99;95.27
6833;BME280;3454;42.654;23.378;2024-02-28T00:04:50;64082.31;;;10.84;96.08
6833;BME280;3454;42.654;23.378;2024-02-28T00:07:15;64074.44;;;10.74;97.73
6833;BME280;3454;42.654;23.378;2024-02-28T00:09:42;64083.41;;;10.85;97.08
6833;BME280;3454;42.654;23.378;2024-02-28T00:12:08;64076.31;;;10.78;96.82
6833;BME280;3454;42.654;23.378;2024-02-28T00:14:35;64087.03;;;10.86;97.52
6833;BME280;3454;42.654;23.378;2024-02-28T00:17:00;64089.97;;;10.91;96.73
6833;BME280;3454;42.654;23.378;2024-02-28T00:19:26;64094.34;;;10.95;96.10
6833;BME280;3454;42.654;23.378;2024-02-28T00:21:52;64089.63;;;10.93;95.93
6833;BME280;3454;42.654;23.378;2024-02-28T00:24:18;64094.34;;;10.95;96.32
6833;BME280;3454;42.654;23.378;2024-02-28T00:26:43;64094.34;;;10.95;95.88
6833;BME280;3454;42.654;23.378;2024-02-28T00:29:10;64081.22;;;10.83;97.09
6833;BME280;3454;42.654;23.378;2024-02-28T00:31:35;64076.84;;;10.79;97.21
6833;BME280;3454;42.654;23.378;2024-02-28T00:34:01;64070.59;;;10.71;96.82
6833;BME280;3454;42.654;23.378;2024-02-28T00:36:27;64062.38;;;10.63;98.25
6833;BME280;3454;42.654;23.378;2024-02-28T00:38:52;64052.22;;;10.56;97.34
6833;BME280;3454;42.654;23.378;2024-02-28T00:41:18;64037.22;;;10.40;99.72
6833;BME280;3454;42.654;23.378;2024-02-28T00:43:43;64028.69;;;10.35;100.00
6833;BME280;3454;42.654;23.378;2024-02-28T00:46:09;64041.06;;;10.44;100.00
6833;BME280;3454;42.654;23.378;2024-02-28T00:48:38;64043.25;;;10.46;99.72
6833;BME280;3454;42.654;23.378;2024-02-28T00:51:03;64035.25;;;10.41;100.00
6833;BME280;3454;42.654;23.378;2024-02-28T00:53:29;64045.09;;;10.50;100.00
6833;BME280;3454;42.654;23.378;2024-02-28T00:55:55;64052.75;;;10.57;100.00
6833;BME280;3454;42.654;23.378;2024-02-28T00:58:20;64043.47;;;10.48;100.00
6833;BME280;3454;42.654;23.378;2024-02-28T01:00:47;64050.78;;;10.57;99.97
6833;BME280;3454;42.654;23.378;2024-02-28T01:03:14;64051.13;;;10.55;100.00
6833;BME280;3454;42.654;23.378;2024-02-28T01:05:41;64056.59;;;10.60;100.00
6833;BME280;3454;42.654;23.378;2024-02-28T01:08:06;64064.03;;;10.65;98.90
6833;BME280;3454;42.654;23.378;2024-02-28T01:10:33;64062.63;;;10.66;99.93
6833;BME280;3454;42.654;23.378;2024-02-28T01:12:58;64068.97;;;10.69;98.43
6833;BME280;3454;42.654;23.378;2024-02-28T01:15:24;64046.75;;;10.51;100.00
6833;BME280;3454;42.654;23.378;2024-02-28T01:17:49;64064.03;;;10.65;99.56
6833;BME280;3454;42.654;23.378;2024-02-28T01:20:15;64060.75;;;10.62;100.00
6833;BME280;3454;42.654;23.378;2024-02-28T01:22:40;64045.22;;;10.45;100.00
6833;BME280;3454;42.654;23.378;2024-02-28T01:25:06;64010.09;;;10.18;100.00
6833;BME280;3454;42.654;23.378;2024-02-28T01:27:32;64000.44;;;10.11;100.00
6833;BME280;3454;42.654;23.378;2024-02-28T01:29:58;63984.34;;;9.94;100.00
6833;BME280;3454;42.654;23.378;2024-02-28T01:32:23;63970.69;;;9.81;100.00
6833;BME280;3454;42.654;23.378;2024-02-28T01:34:49;63959.75;;;9.71;100.00
6833;BME280;3454;42.654;23.378;2024-02-28T01:37:14;63972.88;;;9.83;100.00
6833;BME280;3454;42.654;23.378;2024-02-28T01:39:40;63976.16;;;9.86;100.00
6833;BME280;3454;42.654;23.378;2024-02-28T01:42:05;63985.78;;;9.93;100.00
6833;BME280;3454;42.654;23.378;2024-02-28T01:44:34;63994.75;;;10.03;100.00
6833;BME280;3454;42.654;23.378;2024-02-28T01:47:04;64009.31;;;10.14;100.00
6833;BME280;3454;42.654;23.378;2024-02-28T01:49:29;64006.78;;;10.14;100.00
6833;BME280;3454;42.654;23.378;2024-02-28T01:51:55;64025.72;;;10.30;100.00
6833;BME280;3454;42.654;23.378;2024-02-28T01:54:22;64019.38;;;10.26;100.00
6833;BME280;3454;42.654;23.378;2024-02-28T01:56:48;64026.81;;;10.31;100.00
6833;BME280;3454;42.654;23.378;2024-02-28T01:59:15;64034.16;;;10.40;100.00
6833;BME280;3454;42.654;23.378;2024-02-28T02:01:41;64035.03;;;10.38;100.00
6833;BME280;3454;42.654;23.378;2024-02-28T02:04:07;64046.50;;;10.49;100.00
6833;BME280;3454;42.654;23.378;2024-02-28T02:06:37;64040.16;;;10.45;100.00
6833;BME280;3454;42.654;23.378;2024-02-28T02:09:04;64037.22;;;10.40;100.00
6833;BME280;3454;42.654;23.378;2024-02-28T02:11:29;64046.19;;;10.51;100.00
6833;BME280;3454;42.654;23.378;2024-02-28T02:13:55;64045.44;;;10.48;100.00
6833;BME280;3454;42.654;23.378;2024-02-28T02:16:21;64023.75;;;10.30;100.00
6833;BME280;3454;42.654;23.378;2024-02-28T02:18:55;64031.53;;;10.33;100.00
6833;BME280;3454;42.654;23.378;2024-02-28T02:21:30;64025.97;;;10.32;100.00
6833;BME280;3454;42.654;23.378;2024-02-28T02:23:55;64043.78;;;10.46;100.00
6833;BME280;3454;42.654;23.378;2024-02-28T02:26:21;64035.25;;;10.41;100.00
6833;BME280;3454;42.654;23.378;2024-02-28T02:28:54;64028.69;;;10.35;100.00
6833;BME280;3454;42.654;23.378;2024-02-28T02:31:20;64031.75;;;10.35;100.00
6833;BME280;3454;42.654;23.378;2024-02-28T02:33:45;64022.09;;;10.29;100.00
6833;BME280;3454;42.654;23.378;2024-02-28T02:36:11;64026.81;;;10.31;100.00
6833;BME280;3454;42.654;23.378;2024-02-28T02:38:36;64018.50;;;10.28;100.00
6833;BME280;3454;42.654;23.378;2024-02-28T02:41:02;64021.88;;;10.26;100.00
6833;BME280;3454;42.654;23.378;2024-02-28T02:43:27;64001.88;;;10.10;100.00
6833;BME280;3454;42.654;23.378;2024-02-28T02:45:53;63999.91;;;10.10;100.00
6833;BME280;3454;42.654;23.378;2024-02-28T02:48:18;63990.38;;;9.99;100.00
6833;BME280;3454;42.654;23.378;2024-02-28T02:50:44;63980.28;;;9.88;100.00
6833;BME280;3454;42.654;23.378;2024-02-28T02:53:10;63988.19;;;9.97;100.00
6833;BME280;3454;42.654;23.378;2024-02-28T02:55:36;63997.25;;;10.03;100.00
6833;BME280;3454;42.654;23.378;2024-02-28T02:58:01;63982.69;;;9.92;100.00
6833;BME280;3454;42.654;23.378;2024-02-28T03:00:28;63998.13;;;10.02;100.00
6833;BME280;3454;42.654;23.378;2024-02-28T03:02:54;63981.94;;;9.89;100.00
6833;BME280;3454;42.654;23.378;2024-02-28T03:05:20;63975.38;;;9.83;100.00
6833;BME280;3454;42.654;23.378;2024-02-28T03:07:45;63979.75;;;9.87;100.00
6833;BME280;3454;42.654;23.378;2024-02-28T03:10:11;63952.09;;;9.64;100.00
6833;BME280;3454;42.654;23.378;2024-02-28T03:12:37;63973.19;;;9.81;100.00
6833;BME280;3454;42.654;23.378;2024-02-28T03:15:02;63975.38;;;9.83;100.00
6833;BME280;3454;42.654;23.378;2024-02-28T03:17:29;63968.50;;;9.79;100.00
6833;BME280;3454;42.654;23.378;2024-02-28T03:19:54;63966.63;;;9.75;100.00
6833;BME280;3454;42.654;23.378;2024-02-28T03:22:21;63968.81;;;9.77;100.00
6833;BME280;3454;42.654;23.378;2024-02-28T03:24:47;63964.66;;;9.76;100.00
6833;BME280;3454;42.654;23.378;2024-02-28T03:27:14;63971.00;;;9.79;100.00
6833;BME280;3454;42.654;23.378;2024-02-28T03:29:39;63970.47;;;9.79;100.00
6833;BME280;3454;42.654;23.378;2024-02-28T03:32:05;63977.25;;;9.87;100.00
6833;BME280;3454;42.654;23.378;2024-02-28T03:34:30;63985.22;;;9.92;100.00
6833;BME280;3454;42.654;23.378;2024-02-28T03:36:56;63994.53;;;10.01;100.00
6833;BME280;3454;42.654;23.378;2024-02-28T03:39:22;63984.13;;;9.91;100.00
6833;BME280;3454;42.654;23.378;2024-02-28T03:41:48;63970.69;;;9.81;100.00
6833;BME280;3454;42.654;23.378;2024-02-28T03:44:13;63949.66;;;9.60;100.00
6833;BME280;3454;42.654;23.378;2024-02-28T03:46:39;63948.81;;;9.61;100.00
6833;BME280;3454;42.654;23.378;2024-02-28T03:49:04;63937.88;;;9.51;100.00
6833;BME280;3454;42.654;23.378;2024-02-28T03:51:30;63943.66;;;9.54;100.00
6833;BME280;3454;42.654;23.378;2024-02-28T03:53:56;63942.59;;;9.53;100.00
6833;BME280;3454;42.654;23.378;2024-02-28T03:56:25;63953.28;;;9.61;100.00
6833;BME280;3454;42.654;23.378;2024-02-28T03:58:52;63952.09;;;9.64;100.00
6833;BME280;3454;42.654;23.378;2024-02-28T04:01:18;63923.09;;;9.38;100.00
6833;BME280;3454;42.654;23.378;2024-02-28T04:03:43;63943.66;;;9.54;100.00
6833;BME280;3454;42.654;23.378;2024-02-28T04:06:10;63930.22;;;9.44;100.00
6833;BME280;3454;42.654;23.378;2024-02-28T04:08:36;63922.03;;;9.37;100.00
6833;BME280;3454;42.654;23.378;2024-02-28T04:11:01;63922.91;;;9.35;100.00
6833;BME280;3454;42.654;23.378;2024-02-28T04:13:27;63922.91;;;9.35;100.00
6833;BME280;3454;42.654;23.378;2024-02-28T04:15:53;63937.09;;;9.48;100.00
6833;BME280;3454;42.654;23.378;2024-02-28T04:18:18;63938.22;;;9.49;100.00
6833;BME280;3454;42.654;23.378;2024-02-28T04:20:44;63941.81;;;9.50;100.00
6833;BME280;3454;42.654;23.378;2024-02-28T04:23:10;63941.69;;;9.55;100.00
6833;BME280;3454;42.654;23.378;2024-02-28T04:25:35;63959.19;;;9.71;100.00
6833;BME280;3454;42.654;23.378;2024-02-28T04:28:02;63956.91;;;9.73;100.00
6833;BME280;3454;42.654;23.378;2024-02-28T04:30:28;63965.53;;;9.74;100.00
6833;BME280;3454;42.654;23.378;2024-02-28T04:32:54;63961.72;;;9.71;100.00
6833;BME280;3454;42.654;23.378;2024-02-28T04:35:19;63953.28;;;9.61;100.00
6833;BME280;3454;42.654;23.378;2024-02-28T04:37:49;63948.25;;;9.61;100.00
6833;BME280;3454;42.654;23.378;2024-02-28T04:40:15;63940.41;;;9.51;100.00
6833;BME280;3454;42.654;23.378;2024-02-28T04:42:42;63945.84;;;9.56;100.00
6833;BME280;3454;42.654;23.378;2024-02-28T04:45:10;63941.47;;;9.52;100.00
6833;BME280;3454;42.654;23.378;2024-02-28T04:47:36;63937.31;;;9.51;100.00
6833;BME280;3454;42.654;23.378;2024-02-28T04:50:02;63919.28;;;9.34;100.00
6833;BME280;3454;42.654;23.378;2024-02-28T04:52:33;63903.75;;;9.17;100.00
6833;BME280;3454;42.654;23.378;2024-02-28T04:55:00;63909.22;;;9.22;100.00
6833;BME280;3454;42.654;23.378;2024-02-28T04:57:26;63924.53;;;9.37;100.00
6833;BME280;3454;42.654;23.378;2024-02-28T04:59:51;63907.59;;;9.21;100.00
6833;BME280;3454;42.654;23.378;2024-02-28T05:02:18;63914.91;;;9.30;100.00
6833;BME280;3454;42.654;23.378;2024-02-28T05:04:51;63902.91;;;9.19;100.00
6833;BME280;3454;42.654;23.378;2024-02-28T05:07:17;63910.88;;;9.24;100.00
6833;BME280;3454;42.654;23.378;2024-02-28T05:09:42;63897.75;;;9.12;100.00
6833;BME280;3454;42.654;23.378;2024-02-28T05:12:08;63874.69;;;8.95;100.00
6833;BME280;3454;42.654;23.378;2024-02-28T05:14:35;63861.69;;;8.79;100.00
6833;BME280;3454;42.654;23.378;2024-02-28T05:17:00;63863.53;;;8.83;100.00
6833;BME280;3454;42.654;23.378;2024-02-28T05:19:26;63884.31;;;9.02;100.00
6833;BME280;3454;42.654;23.378;2024-02-28T05:21:52;63884.31;;;9.02;100.00
6833;BME280;3454;42.654;23.378;2024-02-28T05:24:17;63899.38;;;9.13;100.00
6833;BME280;3454;42.654;23.378;2024-02-28T05:26:43;63887.59;;;9.05;100.00
6833;BME280;3454;42.654;23.378;2024-02-28T05:29:08;63878.06;;;8.94;100.00
6833;BME280;3454;42.654;23.378;2024-02-28T05:31:34;63910.88;;;9.24;100.00
6833;BME280;3454;42.654;23.378;2024-02-28T05:34:00;63915.25;;;9.28;100.00
6833;BME280;3454;42.654;23.378;2024-02-28T05:36:28;63944.78;;;9.55;100.00
6833;BME280;3454;42.654;23.378;2024-02-28T05:38:57;63935.13;;;9.49;100.00
6833;BME280;3454;42.654;23.378;2024-02-28T05:41:23;63945.53;;;9.58;100.00
6833;BME280;3454;42.654;23.378;2024-02-28T05:43:49;63952.63;;;9.65;100.00
6833;BME280;3454;42.654;23.378;2024-02-28T05:46:16;63946.94;;;9.57;100.00
6833;BME280;3454;42.654;23.378;2024-02-28T05:48:42;63913.28;;;9.28;100.00
6833;BME280;3454;42.654;23.378;2024-02-28T05:51:08;63911.97;;;9.25;100.00
6833;BME280;3454;42.654;23.378;2024-02-28T05:53:34;63907.59;;;9.21;100.00
6833;BME280;3454;42.654;23.378;2024-02-28T05:56:04;63905.41;;;9.19;100.00
6833;BME280;3454;42.654;23.378;2024-02-28T05:58:30;63932.72;;;9.44;100.00
6833;BME280;3454;42.654;23.378;2024-02-28T06:00:56;63932.72;;;9.44;100.00
6833;BME280;3454;42.654;23.378;2024-02-28T06:03:23;63944.97;;;9.58;100.00
6833;BME280;3454;42.654;23.378;2024-02-28T06:05:49;63951.09;;;9.59;100.00
6833;BME280;3454;42.654;23.378;2024-02-28T06:08:14;63949.91;;;9.62;100.00
6833;BME280;3454;42.654;23.378;2024-02-28T06:10:41;63951.84;;;9.62;100.00
6833;BME280;3454;42.654;23.378;2024-02-28T06:13:12;63970.13;;;9.81;100.00
6833;BME280;3454;42.654;23.378;2024-02-28T06:15:38;63971.78;;;9.82;100.00
6833;BME280;3454;42.654;23.378;2024-02-28T06:18:04;63971.22;;;9.82;100.00
6833;BME280;3454;42.654;23.378;2024-02-28T06:20:30;63981.63;;;9.91;100.00
6833;BME280;3454;42.654;23.378;2024-02-28T06:22:55;63977.56;;;9.85;100.00
6833;BME280;3454;42.654;23.378;2024-02-28T06:25:21;63937.09;;;9.48;100.00
6833;BME280;3454;42.654;23.378;2024-02-28T06:27:49;63946.94;;;9.57;100.00
6833;BME280;3454;42.654;23.378;2024-02-28T06:30:16;63976.81;;;9.82;100.00
6833;BME280;3454;42.654;23.378;2024-02-28T06:32:42;63976.91;;;9.89;100.00
6833;BME280;3454;42.654;23.378;2024-02-28T06:35:08;64000.31;;;10.04;100.00
6833;BME280;3454;42.654;23.378;2024-02-28T06:37:34;64021.34;;;10.26;100.00
6833;BME280;3454;42.654;23.378;2024-02-28T06:40:02;64023.00;;;10.27;100.00
6833;BME280;3454;42.654;23.378;2024-02-28T06:42:29;64022.66;;;10.29;100.00
6833;BME280;3454;42.654;23.378;2024-02-28T06:44:55;64030.09;;;10.34;100.00
6833;BME280;3454;42.654;23.378;2024-02-28T06:47:21;64038.88;;;10.42;100.00
6833;BME280;3454;42.654;23.378;2024-02-28T06:49:46;64027.59;;;10.34;100.00
6833;BME280;3454;42.654;23.378;2024-02-28T06:52:12;64045.09;;;10.50;100.00
6833;BME280;3454;42.654;23.378;2024-02-28T06:54:37;64028.69;;;10.35;100.00
6833;BME280;3454;42.654;23.378;2024-02-28T06:57:03;64047.28;;;10.52;100.00
6833;BME280;3454;42.654;23.378;2024-02-28T06:59:29;64052.00;;;10.54;100.00
6833;BME280;3454;42.654;23.378;2024-02-28T07:01:55;64083.41;;;10.85;100.00
6833;BME280;3454;42.654;23.378;2024-02-28T07:04:21;64084.50;;;10.86;100.00
6833;BME280;3454;42.654;23.378;2024-02-28T07:06:46;64065.88;;;10.69;100.00
6833;BME280;3454;42.654;23.378;2024-02-28T07:09:12;64077.06;;;10.81;100.00
6833;BME280;3454;42.654;23.378;2024-02-28T07:11:38;64049.47;;;10.54;100.00
6833;BME280;3454;42.654;23.378;2024-02-28T07:14:04;64065.13;;;10.66;100.00
6833;BME280;3454;42.654;23.378;2024-02-28T07:16:30;64073.00;;;10.75;100.00
6833;BME280;3454;42.654;23.378;2024-02-28T07:18:57;64085.38;;;10.84;100.00
6833;BME280;3454;42.654;23.378;2024-02-28T07:21:23;64066.44;;;10.69;100.00
6833;BME280;3454;42.654;23.378;2024-02-28T07:23:48;64103.66;;;11.04;100.00
6833;BME280;3454;42.654;23.378;2024-02-28T07:26:15;64093.81;;;10.94;100.00
6833;BME280;3454;42.654;23.378;2024-02-28T07:28:42;64100.38;;;11.01;100.00
6833;BME280;3454;42.654;23.378;2024-02-28T07:31:18;64106.41;;;11.06;100.00
6833;BME280;3454;42.654;23.378;2024-02-28T07:33:44;64128.31;;;11.26;99.83
6833;BME280;3454;42.654;23.378;2024-02-28T07:36:09;64154.03;;;11.50;99.44
6833;BME280;3454;42.654;23.378;2024-02-28T07:38:35;64157.88;;;11.53;98.51
6833;BME280;3454;42.654;23.378;2024-02-28T07:41:01;64162.81;;;11.58;97.27
6833;BME280;3454;42.654;23.378;2024-02-28T07:43:27;64166.66;;;11.61;97.24
6833;BME280;3454;42.654;23.378;2024-02-28T07:45:54;64148.03;;;11.44;98.10
6833;BME280;3454;42.654;23.378;2024-02-28T07:48:19;64182.34;;;11.73;97.12
6833;BME280;3454;42.654;23.378;2024-02-28T07:50:45;64213.03;;;12.02;95.13
6833;BME280;3454;42.654;23.378;2024-02-28T07:53:12;64187.16;;;11.82;96.41
6833;BME280;3454;42.654;23.378;2024-02-28T07:55:38;64207.00;;;11.96;96.76
6833;BME280;3454;42.654;23.378;2024-02-28T07:58:06;64205.59;;;11.97;94.99
6833;BME280;3454;42.654;23.378;2024-02-28T08:00:32;64209.19;;;11.98;94.65
6833;BME280;3454;42.654;23.378;2024-02-28T08:03:01;64238.47;;;12.27;95.41
6833;BME280;3454;42.654;23.378;2024-02-28T08:05:27;64258.53;;;12.43;91.82
6833;BME280;3454;42.654;23.378;2024-02-28T08:07:54;64263.16;;;12.50;89.75
6833;BME280;3454;42.654;23.378;2024-02-28T08:10:19;64277.72;;;12.61;87.75
6833;BME280;3454;42.654;23.378;2024-02-28T08:12:45;64287.59;;;12.70;89.06
6833;BME280;3454;42.654;23.378;2024-02-28T08:15:11;64280.47;;;12.63;87.20
6833;BME280;3454;42.654;23.378;2024-02-28T08:17:36;64259.28;;;12.46;86.96
6833;BME280;3454;42.654;23.378;2024-02-28T08:20:03;64272.78;;;12.56;86.62
6833;BME280;3454;42.654;23.378;2024-02-28T08:22:30;64307.78;;;12.93;85.55
6833;BME280;3454;42.654;23.378;2024-02-28T08:24:56;64358.28;;;13.39;83.71
6833;BME280;3454;42.654;23.378;2024-02-28T08:27:23;64375.84;;;13.56;80.25
6833;BME280;3454;42.654;23.378;2024-02-28T08:29:51;64420.63;;;13.94;79.69
6833;BME280;3454;42.654;23.378;2024-02-28T08:32:18;64416.25;;;13.90;75.58
6833;BME280;3454;42.654;23.378;2024-02-28T08:34:47;64319.63;;;13.02;77.39
6833;BME280;3454;42.654;23.378;2024-02-28T08:37:13;64306.47;;;12.90;78.52
6833;BME280;3454;42.654;23.378;2024-02-28T08:39:39;64344.56;;;13.27;77.76
6833;BME280;3454;42.654;23.378;2024-02-28T08:42:05;64398.34;;;13.76;76.18
6833;BME280;3454;42.654;23.378;2024-02-28T08:44:31;64481.09;;;14.50;72.59
6833;BME280;3454;42.654;23.378;2024-02-28T08:46:57;64504.16;;;14.71;73.78
6833;BME280;3454;42.654;23.378;2024-02-28T08:49:22;64506.16;;;14.70;72.61
6833;BME280;3454;42.654;23.378;2024-02-28T08:51:48;64525.06;;;14.90;70.17
6833;BME280;3454;42.654;23.378;2024-02-28T08:54:13;64558.03;;;15.20;69.95
6833;BME280;3454;42.654;23.378;2024-02-28T08:56:39;64596.22;;;15.57;68.86
6833;BME280;3454;42.654;23.378;2024-02-28T08:59:05;64643.84;;;15.98;68.12
6833;BME280;3454;42.654;23.378;2024-02-28T09:01:30;64600.19;;;15.56;66.29
6833;BME280;3454;42.654;23.378;2024-02-28T09:03:56;64600.41;;;15.59;68.06
6833;BME280;3454;42.654;23.378;2024-02-28T09:06:22;64562.66;;;15.27;68.77
6833;BME280;3454;42.654;23.378;2024-02-28T09:08:48;64571.97;;;15.35;67.12
6833;BME280;3454;42.654;23.378;2024-02-28T09:11:14;64564.84;;;15.29;68.01
6833;BME280;3454;42.654;23.378;2024-02-28T09:13:39;64573.22;;;15.32;68.29
6833;BME280;3454;42.654;23.378;2024-02-28T09:16:05;64583.56;;;15.46;68.50
6833;BME280;3454;42.654;23.378;2024-02-28T09:18:31;64580.56;;;15.41;67.01
6833;BME280;3454;42.654;23.378;2024-02-28T09:20:56;64587.75;;;15.47;66.79
6833;BME280;3454;42.654;23.378;2024-02-28T09:23:22;64629.22;;;15.87;66.45
6833;BME280;3454;42.654;23.378;2024-02-28T09:25:47;64612.16;;;15.72;65.23
6833;BME280;3454;42.654;23.378;2024-02-28T09:28:13;64646.81;;;16.04;63.70
6833;BME280;3454;42.654;23.378;2024-02-28T09:30:41;64636.91;;;15.94;62.80
6833;BME280;3454;42.654;23.378;2024-02-28T09:33:07;64646.59;;;16.01;63.67
6833;BME280;3454;42.654;23.378;2024-02-28T09:35:35;64682.03;;;16.36;62.66
6833;BME280;3454;42.654;23.378;2024-02-28T09:38:02;64734.34;;;16.84;60.32
6833;BME280;3454;42.654;23.378;2024-02-28T09:40:28;64748.34;;;16.99;60.14
6833;BME280;3454;42.654;23.378;2024-02-28T09:43:00;64725.88;;;16.73;58.18
6833;BME280;3454;42.654;23.378;2024-02-28T09:45:26;64722.22;;;16.72;58.91
6833;BME280;3454;42.654;23.378;2024-02-28T09:47:56;64731.59;;;16.81;59.75
6833;BME280;3454;42.654;23.378;2024-02-28T09:50:22;64795.28;;;17.37;58.56
6833;BME280;3454;42.654;23.378;2024-02-28T09:52:47;64841.78;;;17.82;55.93
6833;BME280;3454;42.654;23.378;2024-02-28T09:55:13;64859.09;;;18.00;55.80
6833;BME280;3454;42.654;23.378;2024-02-28T09:57:41;64846.75;;;17.86;53.86
6833;BME280;3454;42.654;23.378;2024-02-28T10:00:09;64854.47;;;17.93;55.39
6833;BME280;3454;42.654;23.378;2024-02-28T10:02:37;64835.19;;;17.76;54.62
6833;BME280;3454;42.654;23.378;2024-02-28T10:05:05;64789.44;;;17.34;56.00
6833;BME280;3454;42.654;23.378;2024-02-28T10:07:31;64750.31;;;16.98;56.27
6833;BME280;3454;42.654;23.378;2024-02-28T10:09:57;64742.59;;;16.91;56.25
6833;BME280;3454;42.654;23.378;2024-02-28T10:12:23;64726.44;;;16.74;56.81
6833;BME280;3454;42.654;23.378;2024-02-28T10:14:52;64697.47;;;16.50;56.07
6833;BME280;3454;42.654;23.378;2024-02-28T10:17:17;64675.56;;;16.25;57.20
6833;BME280;3454;42.654;23.378;2024-02-28T10:19:43;64652.44;;;16.04;58.69
6833;BME280;3454;42.654;23.378;2024-02-28T10:22:08;64639.25;;;15.92;58.68
6833;BME280;3454;42.654;23.378;2024-02-28T10:24:34;64617.09;;;15.76;57.43
6833;BME280;3454;42.654;23.378;2024-02-28T10:27:03;64608.84;;;15.69;57.58
6833;BME280;3454;42.654;23.378;2024-02-28T10:29:29;64619.09;;;15.76;57.36
6833;BME280;3454;42.654;23.378;2024-02-28T10:31:58;64610.63;;;15.66;57.92
6833;BME280;3454;42.654;23.378;2024-02-28T10:34:25;64613.81;;;15.73;57.42
6833;BME280;3454;42.654;23.378;2024-02-28T10:36:51;64673.56;;;16.26;57.29
6833;BME280;3454;42.654;23.378;2024-02-28T10:39:17;64686.97;;;16.40;55.44
6833;BME280;3454;42.654;23.378;2024-02-28T10:41:46;64721.34;;;16.74;54.40
6833;BME280;3454;42.654;23.378;2024-02-28T10:44:13;64775.13;;;17.21;53.03
6833;BME280;3454;42.654;23.378;2024-02-28T10:46:38;64803.22;;;17.46;51.07
6833;BME280;3454;42.654;23.378;2024-02-28T10:49:08;64853.72;;;17.90;50.10
6833;BME280;3454;42.654;23.378;2024-02-28T10:51:35;64939.41;;;18.71;49.15
6833;BME280;3454;42.654;23.378;2024-02-28T10:54:12;64976.94;;;19.05;48.70
6833;BME280;3454;42.654;23.378;2024-02-28T10:56:39;65022.56;;;19.44;47.86
6833;BME280;3454;42.654;23.378;2024-02-28T10:59:07;65064.72;;;19.85;46.06
6833;BME280;3454;42.654;23.378;2024-02-28T11:01:37;65058.09;;;19.79;46.98
6833;BME280;3454;42.654;23.378;2024-02-28T11:04:05;65062.53;;;19.83;46.62
6833;BME280;3454;42.654;23.378;2024-02-28T11:06:30;65029.03;;;19.55;48.18
6833;BME280;3454;42.654;23.378;2024-02-28T11:09:03;65067.84;;;19.85;46.27
6833;BME280;3454;42.654;23.378;2024-02-28T11:11:32;65059.75;;;19.80;45.63
6833;BME280;3454;42.654;23.378;2024-02-28T11:13:59;65101.72;;;20.19;44.99
6833;BME280;3454;42.654;23.378;2024-02-28T11:18:54;65139.31;;;20.53;43.19
6833;BME280;3454;42.654;23.378;2024-02-28T11:21:19;65092.88;;;20.10;43.06
6833;BME280;3454;42.654;23.378;2024-02-28T11:23:48;65034.91;;;19.58;44.70
6833;BME280;3454;42.654;23.378;2024-02-28T11:26:13;64996.44;;;19.25;44.26
6833;BME280;3454;42.654;23.378;2024-02-28T11:28:39;64935.00;;;18.67;44.88
6833;BME280;3454;42.654;23.378;2024-02-28T11:31:06;64905.75;;;18.40;45.93
6833;BME280;3454;42.654;23.378;2024-02-28T11:33:31;64923.22;;;18.54;45.92
6833;BME280;3454;42.654;23.378;2024-02-28T11:35:58;64907.41;;;18.41;46.09
6833;BME280;3454;42.654;23.378;2024-02-28T11:38:25;64916.81;;;18.50;45.54
6833;BME280;3454;42.654;23.378;2024-02-28T11:40:51;64979.13;;;19.07;44.56
6833;BME280;3454;42.654;23.378;2024-02-28T11:43:17;65009.53;;;19.35;44.65
6833;BME280;3454;42.654;23.378;2024-02-28T11:45:46;65021.66;;;19.46;44.30
6833;BME280;3454;42.654;23.378;2024-02-28T11:48:16;64979.34;;;19.09;46.08
6833;BME280;3454;42.654;23.378;2024-02-28T11:50:42;64979.69;;;19.07;47.07
6833;BME280;3454;42.654;23.378;2024-02-28T11:53:08;64994.59;;;19.21;45.50
6833;BME280;3454;42.654;23.378;2024-02-28T11:55:34;64995.13;;;19.21;45.67
6833;BME280;3454;42.654;23.378;2024-02-28T11:58:01;64962.25;;;18.94;45.90
6833;BME280;3454;42.654;23.378;2024-02-28T12:00:26;64928.38;;;18.61;45.16
6833;BME280;3454;42.654;23.378;2024-02-28T12:02:52;64922.88;;;18.56;45.32
6833;BME280;3454;42.654;23.378;2024-02-28T12:05:22;64866.06;;;18.04;45.96
6833;BME280;3454;42.654;23.378;2024-02-28T12:07:47;64892.53;;;18.28;45.68
6833;BME280;3454;42.654;23.378;2024-02-28T12:10:13;64893.84;;;18.31;46.62
6833;BME280;3454;42.654;23.378;2024-02-28T12:12:39;64896.72;;;18.29;46.87
6833;BME280;3454;42.654;23.378;2024-02-28T12:15:05;64902.44;;;18.37;47.71
6833;BME280;3454;42.654;23.378;2024-02-28T12:17:31;64928.03;;;18.63;47.75
6833;BME280;3454;42.654;23.378;2024-02-28T12:20:01;64947.16;;;18.78;48.75
6833;BME280;3454;42.654;23.378;2024-02-28T12:22:27;64937.19;;;18.69;48.90
6833;BME280;3454;42.654;23.378;2024-02-28T12:24:53;64927.84;;;18.60;49.28
6833;BME280;3454;42.654;23.378;2024-02-28T12:27:19;64908.72;;;18.45;49.38
6833;BME280;3454;42.654;23.378;2024-02-28T12:29:44;64989.06;;;19.16;48.43
6833;BME280;3454;42.654;23.378;2024-02-28T12:32:10;65036.03;;;19.59;46.71
6833;BME280;3454;42.654;23.378;2024-02-28T12:34:35;65027.19;;;19.51;48.16
6833;BME280;3454;42.654;23.378;2024-02-28T12:37:01;64980.81;;;19.08;48.40
6833;BME280;3454;42.654;23.378;2024-02-28T12:39:28;64939.41;;;18.71;47.63
6833;BME280;3454;42.654;23.378;2024-02-28T12:41:53;64907.41;;;18.41;48.11
6833;BME280;3454;42.654;23.378;2024-02-28T12:44:19;64892.31;;;18.25;49.09
6833;BME280;3454;42.654;23.378;2024-02-28T12:46:47;64967.00;;;18.96;48.26
6833;BME280;3454;42.654;23.378;2024-02-28T12:49:15;64998.66;;;19.27;46.88
6833;BME280;3454;42.654;23.378;2024-02-28T12:51:43;65014.50;;;19.39;47.29
6833;BME280;3454;42.654;23.378;2024-02-28T12:54:11;65079.84;;;20.01;45.78
6833;BME280;3454;42.654;23.378;2024-02-28T12:56:38;65093.44;;;20.11;45.64
6833;BME280;3454;42.654;23.378;2024-02-28T12:59:06;65095.66;;;20.13;45.23
6833;BME280;3454;42.654;23.378;2024-02-28T13:01:34;65075.41;;;19.97;45.73
6833;BME280;3454;42.654;23.378;2024-02-28T13:04:00;65027.75;;;19.51;44.69
6833;BME280;3454;42.654;23.378;2024-02-28T13:06:26;65001.22;;;19.27;45.17
6833;BME280;3454;42.654;23.378;2024-02-28T13:08:53;64919.72;;;18.48;46.58